createdAt,value
2022-10-19T00:01:48.746Z,19.35
2022-10-19T00:04:18.818Z,19.31
2022-10-19T00:06:49.220Z,19.31
2022-10-19T00:09:21.360Z,19.29
2022-10-19T00:11:52.411Z,19.28
2022-10-19T00:14:25.729Z,19.25
2022-10-19T00:16:56.809Z,19.27
2022-10-19T00:19:29.663Z,19.21
2022-10-19T00:21:59.646Z,19.22
2022-10-19T00:24:29.778Z,19.18
2022-10-19T00:26:59.728Z,19.17
2022-10-19T00:29:30.072Z,19.14
2022-10-19T00:31:59.991Z,19.12
2022-10-19T00:34:30.017Z,19.11
2022-10-19T00:36:59.763Z,19.06
2022-10-19T00:39:29.780Z,19.01
2022-10-19T00:41:59.567Z,18.93
2022-10-19T00:44:33.019Z,18.88
2022-10-19T00:47:09.126Z,18.83
2022-10-19T00:49:43.986Z,18.73
2022-10-19T00:52:17.947Z,18.63
2022-10-19T00:54:50.512Z,18.60
2022-10-19T00:57:22.060Z,18.56
2022-10-19T00:59:52.872Z,18.61
2022-10-19T01:02:23.107Z,18.63
2022-10-19T01:04:54.823Z,18.61
2022-10-19T01:07:27.493Z,18.61
2022-10-19T01:09:59.388Z,18.59
2022-10-19T01:12:49.050Z,18.59
2022-10-19T01:15:42.133Z,18.61
2022-10-19T01:18:29.639Z,18.55
2022-10-19T01:21:36.571Z,18.50
2022-10-19T01:24:29.148Z,18.45
2022-10-19T01:27:29.854Z,18.39
2022-10-19T01:30:22.011Z,18.39
2022-10-19T01:33:15.881Z,18.35
2022-10-19T01:35:57.717Z,18.40
2022-10-19T01:38:47.668Z,18.39
2022-10-19T01:41:42.417Z,18.39
2022-10-19T01:44:24.814Z,18.49
2022-10-19T01:47:07.281Z,18.55
2022-10-19T01:49:46.236Z,18.59
2022-10-19T01:52:20.907Z,18.60
2022-10-19T01:54:54.547Z,18.60
2022-10-19T01:57:53.673Z,18.57
2022-10-19T02:00:25.345Z,18.59
2022-10-19T02:02:57.263Z,18.57
2022-10-19T02:05:31.630Z,18.56
2022-10-19T02:08:06.449Z,18.57
2022-10-19T02:10:40.064Z,18.57
2022-10-19T02:13:13.159Z,18.61
2022-10-19T02:15:48.553Z,18.59
2022-10-19T02:18:25.254Z,18.55
2022-10-19T02:20:55.749Z,18.52
2022-10-19T02:23:29.626Z,18.56
2022-10-19T02:26:00.638Z,18.59
2022-10-19T02:28:32.371Z,18.61
2022-10-19T02:31:03.377Z,18.59
2022-10-19T02:33:33.998Z,18.50
2022-10-19T02:36:04.772Z,18.42
2022-10-19T02:38:34.715Z,18.45
2022-10-19T02:41:21.913Z,18.49
2022-10-19T02:43:58.715Z,18.40
2022-10-19T02:49:11.884Z,18.43
2022-10-19T02:51:57.606Z,18.46
2022-10-19T02:54:28.382Z,18.47
2022-10-19T02:56:58.867Z,18.49
2022-10-19T02:59:28.855Z,18.46
2022-10-19T03:01:58.586Z,18.46
2022-10-19T03:04:28.586Z,18.42
2022-10-19T03:06:58.607Z,18.42
2022-10-19T03:09:28.454Z,18.35
2022-10-19T03:11:58.609Z,18.29
2022-10-19T03:14:28.329Z,18.28
2022-10-19T03:16:58.110Z,18.36
2022-10-19T03:19:27.954Z,18.36
2022-10-19T03:21:57.758Z,18.36
2022-10-19T03:24:27.658Z,18.38
2022-10-19T03:26:57.477Z,18.36
2022-10-19T03:29:27.392Z,18.36
2022-10-19T03:31:57.207Z,18.39
2022-10-19T03:34:27.401Z,18.32
2022-10-19T03:36:57.900Z,18.36
2022-10-19T03:39:28.238Z,18.35
2022-10-19T03:41:57.977Z,18.35
2022-10-19T03:44:28.301Z,18.25
2022-10-19T03:46:58.077Z,18.24
2022-10-19T03:49:27.811Z,18.16
2022-10-19T03:51:57.588Z,18.13
2022-10-19T03:54:27.640Z,18.13
2022-10-19T03:56:57.468Z,18.06
2022-10-19T03:59:27.292Z,17.98
2022-10-19T04:01:57.415Z,17.97
2022-10-19T04:04:27.355Z,17.95
2022-10-19T04:06:57.559Z,17.94
2022-10-19T04:09:27.382Z,17.94
2022-10-19T04:11:58.345Z,17.97
2022-10-19T04:14:33.317Z,17.95
2022-10-19T04:17:09.598Z,17.98
2022-10-19T04:19:39.355Z,17.98
2022-10-19T04:22:09.123Z,17.97
2022-10-19T04:24:39.255Z,17.98
2022-10-19T04:27:09.450Z,17.92
2022-10-19T04:29:39.614Z,17.87
2022-10-19T04:32:09.483Z,17.74
2022-10-19T04:34:40.104Z,17.75
2022-10-19T04:37:10.278Z,17.77
2022-10-19T04:39:42.192Z,17.77
2022-10-19T04:42:12.642Z,17.73
2022-10-19T04:44:42.529Z,17.75
2022-10-19T04:47:12.638Z,17.78
2022-10-19T04:49:42.377Z,17.77
2022-10-19T04:52:14.387Z,17.79
2022-10-19T04:54:44.801Z,17.85
2022-10-19T04:57:14.681Z,17.88
2022-10-19T04:59:44.417Z,17.89
2022-10-19T05:02:14.260Z,17.89
2022-10-19T05:04:45.188Z,17.92
2022-10-19T05:07:16.104Z,17.87
2022-10-19T05:09:46.050Z,17.84
2022-10-19T05:12:15.807Z,17.82
2022-10-19T05:14:45.752Z,17.81
2022-10-19T05:17:15.495Z,17.81
2022-10-19T05:19:45.588Z,17.81
2022-10-19T05:22:15.388Z,17.74
2022-10-19T05:24:45.133Z,17.66
2022-10-19T05:27:15.460Z,17.68
2022-10-19T05:29:45.223Z,17.64
2022-10-19T05:32:15.581Z,17.58
2022-10-19T05:34:45.377Z,17.60
2022-10-19T05:37:15.176Z,17.64
2022-10-19T05:39:45.336Z,17.70
2022-10-19T05:42:15.540Z,17.68
2022-10-19T05:44:45.593Z,17.60
2022-10-19T05:47:15.382Z,17.61
2022-10-19T05:49:45.128Z,17.66
2022-10-19T05:52:15.037Z,17.67
2022-10-19T05:54:45.081Z,17.64
2022-10-19T05:57:15.309Z,17.67
2022-10-19T05:59:45.489Z,17.67
2022-10-19T06:02:16.022Z,17.67
2022-10-19T06:04:45.957Z,17.68
2022-10-19T06:07:16.115Z,17.66
2022-10-19T06:09:46.895Z,17.73
2022-10-19T06:12:18.612Z,17.75
2022-10-19T06:14:52.861Z,17.73
2022-10-19T06:17:23.303Z,17.71
2022-10-19T06:19:53.119Z,17.71
2022-10-19T06:22:23.137Z,17.73
2022-10-19T06:24:52.894Z,17.71
2022-10-19T06:27:23.236Z,17.71
2022-10-19T06:29:53.063Z,17.71
2022-10-19T06:32:23.184Z,17.74
2022-10-19T06:34:56.415Z,17.73
2022-10-19T06:37:26.924Z,17.73
2022-10-19T06:39:56.880Z,17.74
2022-10-19T06:42:28.181Z,17.73
2022-10-19T06:44:58.675Z,17.77
2022-10-19T06:47:32.674Z,17.74
2022-10-19T06:50:03.684Z,17.77
2022-10-19T06:52:35.633Z,17.81
2022-10-19T06:55:05.919Z,17.79
2022-10-19T06:57:35.880Z,17.77
2022-10-19T07:00:08.796Z,17.74
2022-10-19T07:02:40.149Z,17.77
2022-10-19T07:05:11.302Z,17.77
2022-10-19T07:07:41.583Z,17.77
2022-10-19T07:10:11.497Z,17.79
2022-10-19T07:12:41.358Z,17.79
2022-10-19T07:15:12.113Z,17.85
2022-10-19T07:17:42.036Z,17.89
2022-10-19T07:20:12.696Z,17.92
2022-10-19T07:22:42.860Z,17.91
2022-10-19T07:25:13.179Z,17.88
2022-10-19T07:27:43.392Z,17.89
2022-10-19T07:30:13.769Z,17.88
2022-10-19T07:32:46.915Z,17.88
2022-10-19T07:35:17.895Z,17.91
2022-10-19T07:37:48.168Z,17.84
2022-10-19T07:40:17.989Z,17.79
2022-10-19T07:42:47.818Z,17.88
2022-10-19T07:45:17.619Z,17.82
2022-10-19T07:47:47.422Z,17.78
2022-10-19T07:50:17.627Z,17.71
2022-10-19T07:52:48.307Z,17.67
2022-10-19T07:55:18.783Z,17.63
2022-10-19T07:57:51.836Z,17.64
2022-10-19T08:00:22.329Z,17.68
2022-10-19T08:03:19.310Z,17.66
2022-10-19T08:05:43.105Z,17.61
2022-10-19T08:08:13.111Z,17.64
2022-10-19T08:10:42.881Z,17.63
2022-10-19T08:13:12.632Z,17.61
2022-10-19T08:15:42.371Z,17.54
2022-10-19T08:18:12.651Z,17.54
2022-10-19T08:20:43.879Z,17.53
2022-10-19T08:23:14.001Z,17.61
2022-10-19T08:25:43.801Z,17.68
2022-10-19T08:28:14.275Z,17.75
2022-10-19T08:30:44.488Z,17.81
2022-10-19T08:33:16.361Z,17.84
2022-10-19T08:35:46.469Z,17.87
2022-10-19T08:38:16.354Z,17.77
2022-10-19T08:40:47.291Z,17.81
2022-10-19T08:43:41.538Z,17.84
2022-10-19T08:46:15.250Z,17.82
2022-10-19T08:48:46.119Z,17.77
2022-10-19T08:51:16.413Z,17.68
2022-10-19T08:53:57.755Z,17.66
2022-10-19T08:56:50.399Z,17.68
2022-10-19T08:59:49.171Z,17.66
2022-10-19T09:02:34.894Z,17.64
2022-10-19T09:05:22.530Z,17.73
2022-10-19T09:07:55.901Z,17.75
2022-10-19T09:10:30.797Z,17.75
2022-10-19T09:13:06.331Z,17.87
2022-10-19T09:15:51.619Z,17.87
2022-10-19T09:18:25.828Z,17.91
2022-10-19T09:21:12.163Z,17.87
2022-10-19T09:23:48.112Z,17.87
2022-10-19T09:26:20.790Z,17.92
2022-10-19T09:29:16.866Z,17.84
2022-10-19T09:31:47.549Z,17.73
2022-10-19T09:34:20.776Z,17.70
2022-10-19T09:36:59.457Z,17.74
2022-10-19T09:39:32.550Z,17.89
2022-10-19T09:42:24.296Z,17.97
2022-10-19T09:44:56.707Z,18.08
2022-10-19T09:47:41.599Z,18.15
2022-10-19T09:50:22.969Z,18.18
2022-10-19T09:53:01.377Z,18.25
2022-10-19T09:55:45.259Z,18.40
2022-10-19T09:58:15.804Z,18.36
2022-10-19T10:00:56.103Z,18.46
2022-10-19T10:03:44.556Z,18.61
2022-10-19T10:06:18.982Z,18.77
2022-10-19T10:08:52.224Z,18.81
2022-10-19T10:11:30.628Z,18.87
2022-10-19T10:14:09.827Z,18.97
2022-10-19T10:16:40.093Z,19.01
2022-10-19T10:19:14.017Z,19.04
2022-10-19T10:21:53.838Z,19.15
2022-10-19T10:24:31.968Z,19.28
2022-10-19T10:27:07.826Z,19.34
2022-10-19T10:29:40.483Z,19.38
2022-10-19T10:32:21.498Z,19.41
2022-10-19T10:35:17.893Z,19.51
2022-10-19T10:37:49.040Z,19.51
2022-10-19T10:40:52.462Z,19.61
2022-10-19T10:43:29.351Z,19.63
2022-10-19T10:46:16.257Z,19.69
2022-10-19T10:49:00.045Z,19.83
2022-10-19T10:51:57.838Z,19.97
2022-10-19T10:54:34.407Z,20.17
2022-10-19T10:57:12.873Z,20.23
2022-10-19T11:00:12.501Z,20.37
2022-10-19T11:02:48.436Z,20.54
2022-10-19T11:05:43.515Z,20.63
2022-10-19T11:08:30.530Z,20.92
2022-10-19T11:11:24.145Z,21.23
2022-10-19T11:14:03.640Z,22.24
2022-10-19T11:16:40.721Z,22.05
2022-10-19T11:19:28.551Z,23.11
2022-10-19T11:22:26.370Z,24.72
2022-10-19T11:25:21.590Z,23.98
2022-10-19T11:28:26.263Z,24.88
2022-10-19T11:31:08.592Z,26.22
2022-10-19T11:33:50.084Z,26.52
2022-10-19T11:36:59.862Z,26.68
2022-10-19T11:39:38.849Z,27.26
2022-10-19T11:42:20.627Z,26.52
2022-10-19T11:44:56.007Z,26.14
2022-10-19T11:48:02.119Z,26.68
2022-10-19T11:50:46.682Z,26.59
2022-10-19T11:53:30.365Z,26.17
2022-10-19T11:56:39.123Z,26.55
2022-10-19T11:59:19.515Z,26.18
2022-10-19T12:01:55.698Z,26.53
2022-10-19T12:04:52.082Z,26.59
2022-10-19T12:07:54.478Z,27.43
2022-10-19T12:11:18.741Z,27.43
2022-10-19T12:14:07.648Z,27.85
2022-10-19T12:16:45.066Z,28.68
2022-10-19T12:19:32.743Z,27.58
2022-10-19T12:22:07.028Z,27.78
2022-10-19T12:24:37.731Z,28.77
2022-10-19T12:27:11.941Z,30.02
2022-10-19T12:29:45.453Z,28.94
2022-10-19T12:32:18.816Z,28.63
2022-10-19T12:35:14.549Z,28.70
2022-10-19T12:37:54.578Z,29.24
2022-10-19T12:40:55.371Z,29.69
2022-10-19T12:43:29.289Z,29.74
2022-10-19T12:46:22.914Z,29.41
2022-10-19T12:49:42.031Z,29.00
2022-10-19T12:52:12.828Z,28.90
2022-10-19T12:54:44.668Z,30.00
2022-10-19T12:57:31.408Z,30.18
2022-10-19T13:00:08.667Z,30.45
2022-10-19T13:02:41.491Z,30.68
2022-10-19T13:05:22.855Z,30.34
2022-10-19T13:07:54.005Z,31.08
2022-10-19T13:10:27.935Z,31.25
2022-10-19T13:12:58.077Z,31.59
2022-10-19T13:15:40.011Z,31.37
2022-10-19T13:18:18.004Z,29.07
2022-10-19T13:20:55.719Z,28.78
2022-10-19T13:23:28.647Z,30.35
2022-10-19T13:26:25.604Z,30.76
2022-10-19T13:28:58.643Z,32.96
2022-10-19T13:31:32.336Z,33.40
2022-10-19T13:34:02.475Z,34.84
2022-10-19T13:36:33.430Z,36.19
2022-10-19T13:39:07.134Z,35.32
2022-10-19T13:41:39.146Z,32.76
2022-10-19T13:44:20.914Z,31.46
2022-10-19T13:47:15.518Z,30.07
2022-10-19T13:49:59.364Z,29.49
2022-10-19T13:52:38.364Z,31.33
2022-10-19T13:55:36.788Z,30.18
2022-10-19T13:58:50.807Z,29.90
2022-10-19T14:01:36.500Z,29.59
2022-10-19T14:04:40.365Z,29.22
2022-10-19T14:07:30.194Z,28.57
2022-10-19T14:10:04.178Z,30.54
2022-10-19T14:12:38.672Z,29.53
2022-10-19T14:15:32.272Z,29.39
2022-10-19T14:18:05.802Z,29.12
2022-10-19T14:20:40.756Z,29.19
2022-10-19T14:23:21.648Z,28.94
2022-10-19T14:26:08.324Z,28.73
2022-10-19T14:28:45.127Z,28.66
2022-10-19T14:31:23.935Z,28.46
2022-10-19T14:33:59.534Z,28.50
2022-10-19T14:36:38.440Z,28.20
2022-10-19T14:39:09.332Z,27.99
2022-10-19T14:41:40.027Z,28.71
2022-10-19T14:44:38.794Z,28.31
2022-10-19T14:47:17.512Z,28.09
2022-10-19T14:49:47.682Z,31.15
2022-10-19T14:52:34.245Z,33.58
2022-10-19T14:55:17.781Z,34.91
2022-10-19T14:57:53.644Z,34.76
2022-10-19T15:03:03.425Z,32.32
2022-10-19T15:05:41.754Z,31.87
2022-10-19T15:08:24.569Z,32.43
2022-10-19T15:10:55.060Z,34.32
2022-10-19T15:13:42.706Z,36.63
2022-10-19T15:16:41.982Z,35.30
2022-10-19T15:19:38.034Z,35.58
2022-10-19T15:22:16.885Z,34.83
2022-10-19T15:25:20.488Z,34.33
2022-10-19T15:27:52.082Z,35.52
2022-10-19T15:30:26.508Z,34.47
2022-10-19T15:33:14.636Z,33.92
2022-10-19T15:35:46.685Z,33.92
2022-10-19T15:38:16.587Z,33.85
2022-10-19T15:40:48.355Z,33.30
2022-10-19T15:43:35.958Z,34.06
2022-10-19T15:46:15.539Z,34.04
2022-10-19T15:48:55.388Z,34.59
2022-10-19T15:51:28.655Z,35.62
2022-10-19T15:54:07.255Z,36.37
2022-10-19T15:56:40.300Z,36.00
2022-10-19T15:59:22.160Z,34.01
2022-10-19T16:01:53.796Z,33.47
2022-10-19T16:04:25.909Z,32.75
2022-10-19T16:06:56.242Z,34.26
2022-10-19T16:09:26.432Z,32.35
2022-10-19T16:11:58.462Z,31.00
2022-10-19T16:14:31.906Z,31.46
2022-10-19T16:17:06.659Z,31.77
2022-10-19T16:19:37.039Z,30.52
2022-10-19T16:22:07.123Z,29.56
2022-10-19T16:24:36.919Z,29.34
2022-10-19T16:27:07.018Z,29.19
2022-10-19T16:29:37.165Z,29.58
2022-10-19T16:32:07.464Z,29.73
2022-10-19T16:34:37.522Z,29.90
2022-10-19T16:37:07.977Z,29.90
2022-10-19T16:39:38.168Z,32.28
2022-10-19T16:42:08.134Z,33.47
2022-10-19T16:44:37.890Z,35.45
2022-10-19T16:47:07.896Z,35.66
2022-10-19T16:49:37.680Z,34.64
2022-10-19T16:52:07.677Z,34.66
2022-10-19T16:54:37.926Z,34.04
2022-10-19T16:57:09.898Z,34.01
2022-10-19T16:59:40.342Z,34.98
2022-10-19T17:02:12.534Z,34.95
2022-10-19T17:04:42.903Z,35.38
2022-10-19T17:07:14.032Z,34.81
2022-10-19T17:09:44.454Z,35.17
2022-10-19T17:12:15.038Z,33.94
2022-10-19T17:14:45.843Z,33.43
2022-10-19T17:17:18.232Z,31.41
2022-10-19T17:19:49.991Z,31.43
2022-10-19T17:22:20.290Z,34.20
2022-10-19T17:24:50.099Z,34.29
2022-10-19T17:27:20.002Z,34.37
2022-10-19T17:29:50.367Z,34.66
2022-10-19T17:32:20.244Z,31.32
2022-10-19T17:34:50.075Z,32.08
2022-10-19T17:37:19.818Z,31.39
2022-10-19T17:39:52.726Z,30.40
2022-10-19T17:42:23.146Z,29.66
2022-10-19T17:44:55.660Z,29.35
2022-10-19T17:47:25.619Z,30.24
2022-10-19T17:49:55.410Z,30.82
2022-10-19T17:52:25.203Z,30.24
2022-10-19T17:57:45.498Z,29.61
2022-10-19T18:00:16.161Z,29.15
2022-10-19T18:02:47.596Z,29.04
2022-10-19T18:05:18.016Z,29.12
2022-10-19T18:07:48.234Z,29.07
2022-10-19T18:10:18.572Z,29.21
2022-10-19T18:12:49.128Z,29.49
2022-10-19T18:15:19.473Z,29.36
2022-10-19T18:17:49.672Z,29.19
2022-10-19T18:20:19.950Z,30.31
2022-10-19T18:22:49.696Z,29.49
2022-10-19T18:25:25.971Z,29.08
2022-10-19T18:28:07.416Z,29.51
2022-10-19T18:30:39.089Z,30.47
2022-10-19T18:33:09.521Z,30.91
2022-10-19T18:35:41.059Z,30.91
2022-10-19T18:38:10.664Z,30.51
2022-10-19T18:40:40.957Z,29.94
2022-10-19T18:43:10.870Z,30.21
2022-10-19T18:45:40.924Z,30.71
2022-10-19T18:48:10.773Z,30.42
2022-10-19T18:50:40.550Z,30.14
2022-10-19T18:53:10.332Z,29.59
2022-10-19T18:55:40.152Z,29.66
2022-10-19T18:58:10.964Z,29.65
2022-10-19T19:00:45.704Z,29.35
2022-10-19T19:03:15.910Z,29.38
2022-10-19T19:05:45.681Z,29.67
2022-10-19T19:08:15.949Z,29.43
2022-10-19T19:10:47.481Z,29.26
2022-10-19T19:13:17.396Z,29.26
2022-10-19T19:15:47.927Z,29.10
2022-10-19T19:20:53.177Z,28.86
2022-10-19T19:23:23.419Z,28.54
2022-10-19T19:25:53.222Z,28.46
2022-10-19T19:28:23.206Z,28.20
2022-10-19T19:30:53.106Z,28.16
2022-10-19T19:33:22.931Z,28.17
2022-10-19T19:35:53.484Z,28.29
2022-10-19T19:38:23.387Z,28.54
2022-10-19T19:40:53.144Z,28.52
2022-10-19T19:43:22.919Z,28.68
2022-10-19T19:46:06.318Z,28.68
2022-10-19T19:48:39.529Z,28.56
2022-10-19T19:51:18.164Z,28.25
2022-10-19T19:53:49.412Z,28.16
2022-10-19T19:56:19.762Z,28.23
2022-10-19T19:58:50.151Z,28.17
2022-10-19T20:01:22.247Z,28.02
2022-10-19T20:03:52.620Z,27.94
2022-10-19T20:06:25.162Z,27.81
2022-10-19T20:08:57.627Z,27.78
2022-10-19T20:11:31.941Z,27.74
2022-10-19T20:14:02.331Z,27.85
2022-10-19T20:16:35.525Z,27.75
2022-10-19T20:19:13.875Z,27.72
2022-10-19T20:21:43.907Z,27.81
2022-10-19T20:24:14.364Z,27.68
2022-10-19T20:26:44.937Z,27.51
2022-10-19T20:29:15.212Z,27.40
2022-10-19T20:31:44.990Z,27.22
2022-10-19T20:34:21.730Z,27.18
2022-10-19T20:36:54.435Z,27.13
2022-10-19T20:39:24.494Z,26.99
2022-10-19T20:41:55.049Z,26.92
2022-10-19T20:44:25.251Z,26.80
2022-10-19T20:46:55.105Z,26.62
2022-10-19T20:49:24.937Z,26.52
2022-10-19T20:51:56.085Z,26.55
2022-10-19T20:54:26.073Z,26.44
2022-10-19T20:56:56.682Z,26.18
2022-10-19T20:59:28.795Z,26.05
2022-10-19T21:01:59.525Z,26.01
2022-10-19T21:04:29.628Z,26.00
2022-10-19T21:07:01.082Z,26.01
2022-10-19T21:09:31.487Z,25.81
2022-10-19T21:12:02.708Z,25.63
2022-10-19T21:14:34.041Z,25.47
2022-10-19T21:17:04.448Z,25.28
2022-10-19T21:19:34.407Z,25.15
2022-10-19T21:22:04.733Z,25.18
2022-10-19T21:24:37.244Z,25.19
2022-10-19T21:27:10.283Z,25.12
2022-10-19T21:29:40.577Z,25.08
2022-10-19T21:32:10.485Z,25.09
2022-10-19T21:34:40.255Z,25.18
2022-10-19T21:37:10.267Z,25.26
2022-10-19T21:39:40.739Z,25.26
2022-10-19T21:42:10.857Z,25.19
2022-10-19T21:44:40.725Z,25.23
2022-10-19T21:47:10.949Z,25.14
2022-10-19T21:49:40.788Z,25.04
2022-10-19T21:52:15.121Z,25.15
2022-10-19T21:54:45.952Z,25.12
2022-10-19T21:57:16.213Z,24.99
2022-10-19T21:59:46.218Z,24.92
2022-10-19T22:02:16.073Z,24.84
2022-10-19T22:04:45.898Z,24.80
2022-10-19T22:07:16.109Z,24.71
2022-10-19T22:09:45.961Z,24.60
2022-10-19T22:12:15.780Z,24.51
2022-10-19T22:14:46.457Z,24.37
2022-10-19T22:17:16.282Z,24.30
2022-10-19T22:19:46.384Z,24.21
2022-10-19T22:22:16.134Z,24.14
2022-10-19T22:24:45.867Z,24.06
2022-10-19T22:27:16.765Z,23.95
2022-10-19T22:29:46.650Z,23.75
2022-10-19T22:32:16.675Z,23.68
2022-10-19T22:34:46.447Z,23.65
2022-10-19T22:37:16.166Z,23.63
2022-10-19T22:39:45.921Z,23.62
2022-10-19T22:42:19.303Z,23.59
2022-10-19T22:44:49.692Z,23.58
2022-10-19T22:47:19.515Z,23.58
2022-10-19T22:49:49.292Z,23.57
2022-10-19T22:52:19.152Z,23.62
2022-10-19T22:54:48.971Z,23.62
2022-10-19T22:57:19.170Z,23.54
2022-10-19T22:59:49.062Z,23.51
2022-10-19T23:02:19.309Z,23.47
2022-10-19T23:04:50.073Z,23.32
2022-10-19T23:07:20.510Z,23.27
2022-10-19T23:09:50.770Z,23.37
2022-10-19T23:12:20.792Z,23.40
2022-10-19T23:14:50.606Z,23.37
2022-10-19T23:17:20.418Z,23.31
2022-10-19T23:19:50.223Z,23.24
2022-10-19T23:22:20.054Z,23.25
2022-10-19T23:24:50.262Z,23.18
2022-10-19T23:27:21.191Z,22.94
2022-10-19T23:29:51.591Z,22.79
2022-10-19T23:32:21.409Z,22.92
2022-10-19T23:34:51.309Z,22.93
2022-10-19T23:37:21.082Z,22.87
2022-10-19T23:39:51.200Z,22.77
2022-10-19T23:42:21.038Z,22.80
2022-10-19T23:44:51.337Z,22.83
2022-10-19T23:47:21.230Z,22.92
2022-10-19T23:49:51.123Z,22.89
2022-10-19T23:52:21.028Z,22.90
2022-10-19T23:54:51.270Z,22.86
2022-10-19T23:57:21.236Z,22.74
2022-10-19T23:59:51.099Z,22.57
